Agency, IA (52530)

10:28 PM CST on February 07, 2016 (GMT -0600)
East | | Change Station
CLOSE
Current Station
Personal Weather Station
Location: Ottumwa, IA
Elevation: 833 ft
Nearby Weather Stations

Elev 833 ft 41.03 °N, 92.40 °W | Updated 45 seconds ago

Overcast
Overcast
34.7 °F
Feels Like 29 °F
N
6.0
Wind Variable Wind from West
Gusts 9.0 mph

Today
High -- | Low -- °F
--% Chance of Precip.
Yesterday
High -- | Low -- °F
Precip. -- in
Pressure 29.83 in
Visibility 10.0 miles
Clouds Few 2000 ft
Mostly Cloudy 2800 ft
Overcast 3900 ft
Windchill 29 °F
Dew Point 30 °F
Humidity 83%
Rainfall 0.00 in
Snow Depth Not available.
7:13 AM 5:33 PM
Waning Crescent, 0% visible
METAR KOTM 080353Z AUTO 27011KT 10SM FEW020 BKN028 OVC039 01/M01 A2981 RMK AO2 SLP100 T00111006
Pressure 29.83 in
Visibility 10.0 miles
Clouds Few 2000 ft
Mostly Cloudy 2800 ft
Overcast 3900 ft
Windchill 29 °F
Dew Point 30 °F
Humidity 83%
Rainfall 0.00 in
Snow Depth Not available.
7:13 AM 5:33 PM
Waning Crescent, 0% visible
METAR KOTM 080353Z AUTO 27011KT 10SM FEW020 BKN028 OVC039 01/M01 A2981 RMK AO2 SLP100 T00111006

10-Day Weather Forecast

Almanac

Astronomy

Feb. 07, 2016 Rise Set
Actual Time
Civil Twilight
Nautical Twilight
Astronomical Twilight
Moon
Length of Visible Light
Length of Day
Tomorrow will be .
, % of the Moon is Illuminated

Today's Extremes

State Highs State Lows

Community

WunderPhotos

Upload Photos

1,891,379 photos uploaded!

WunderBlog® & News

Nearby

Air Quality

  Air Quality AQ Index Pollutant
Not available.

Snow Depth

Station Depth Elevation

Earthquake Activity

City Distance Mag. Time & Date
Minimum magnitude displayed is 2.5.

Coastal Water Temperatures

Place Temperature

Stations

Nearby Weather Stations

Station Location Temp. Windchill Dew Point Humidity Wind Precip. Elev Updated Type
                   

Watches & Warnings

There are currently no watches in effect.